sensor_id;sensor_type;location;lat;lon;timestamp;temperature;humidity
18408;DHT22;9330;52.210;21.174;2024-01-27T00:00:17;2.20;99.90
18408;DHT22;9330;52.210;21.174;2024-01-27T00:02:44;2.40;99.90
18408;DHT22;9330;52.210;21.174;2024-01-27T00:05:11;2.80;99.90
18408;DHT22;9330;52.210;21.174;2024-01-27T00:07:38;3.00;99.90
18408;DHT22;9330;52.210;21.174;2024-01-27T00:10:06;3.20;99.90
18408;DHT22;9330;52.210;21.174;2024-01-27T00:12:36;3.30;99.90
18408;DHT22;9330;52.210;21.174;2024-01-27T00:15:03;3.40;99.90
18408;DHT22;9330;52.210;21.174;2024-01-27T00:17:30;3.50;99.90
18408;DHT22;9330;52.210;21.174;2024-01-27T00:19:57;3.60;99.90
18408;DHT22;9330;52.210;21.174;2024-01-27T00:22:24;3.70;99.90
18408;DHT22;9330;52.210;21.174;2024-01-27T00:24:51;3.70;99.90
18408;DHT22;9330;52.210;21.174;2024-01-27T00:27:17;3.70;99.90
18408;DHT22;9330;52.210;21.174;2024-01-27T00:29:46;3.80;99.90
18408;DHT22;9330;52.210;21.174;2024-01-27T00:32:12;3.90;99.90
18408;DHT22;9330;52.210;21.174;2024-01-27T00:34:39;3.90;99.90
18408;DHT22;9330;52.210;21.174;2024-01-27T00:37:06;3.90;99.90
18408;DHT22;9330;52.210;21.174;2024-01-27T00:39:33;3.80;99.90
18408;DHT22;9330;52.210;21.174;2024-01-27T00:42:00;3.90;99.90
18408;DHT22;9330;52.210;21.174;2024-01-27T00:44:26;3.80;99.90
18408;DHT22;9330;52.210;21.174;2024-01-27T00:46:55;3.90;99.90
18408;DHT22;9330;52.210;21.174;2024-01-27T00:49:21;3.90;99.90
18408;DHT22;9330;52.210;21.174;2024-01-27T00:51:48;3.80;99.90
18408;DHT22;9330;52.210;21.174;2024-01-27T00:54:15;3.90;99.90
18408;DHT22;9330;52.210;21.174;2024-01-27T00:56:42;3.90;99.90
18408;DHT22;9330;52.210;21.174;2024-01-27T00:59:09;3.90;99.90
18408;DHT22;9330;52.210;21.174;2024-01-27T01:01:36;3.80;99.90
18408;DHT22;9330;52.210;21.174;2024-01-27T01:04:04;3.80;99.90
18408;DHT22;9330;52.210;21.174;2024-01-27T01:06:31;3.90;99.90
18408;DHT22;9330;52.210;21.174;2024-01-27T01:08:58;3.80;99.90
18408;DHT22;9330;52.210;21.174;2024-01-27T01:11:24;3.90;99.90
18408;DHT22;9330;52.210;21.174;2024-01-27T01:13:51;3.90;99.90
18408;DHT22;9330;52.210;21.174;2024-01-27T01:16:18;3.80;99.90
18408;DHT22;9330;52.210;21.174;2024-01-27T01:18:45;3.90;99.90
18408;DHT22;9330;52.210;21.174;2024-01-27T01:21:13;3.90;99.90
18408;DHT22;9330;52.210;21.174;2024-01-27T01:23:40;3.80;99.90
18408;DHT22;9330;52.210;21.174;2024-01-27T01:26:07;3.90;99.90
18408;DHT22;9330;52.210;21.174;2024-01-27T01:28:33;3.90;99.90
18408;DHT22;9330;52.210;21.174;2024-01-27T01:31:00;3.90;99.90
18408;DHT22;9330;52.210;21.174;2024-01-27T01:33:27;4.00;99.90
18408;DHT22;9330;52.210;21.174;2024-01-27T01:35:54;3.90;99.90
18408;DHT22;9330;52.210;21.174;2024-01-27T01:38:22;3.80;99.90
18408;DHT22;9330;52.210;21.174;2024-01-27T01:40:49;3.80;99.90
18408;DHT22;9330;52.210;21.174;2024-01-27T01:43:15;4.00;99.90
18408;DHT22;9330;52.210;21.174;2024-01-27T01:45:42;3.80;99.90
18408;DHT22;9330;52.210;21.174;2024-01-27T01:48:09;3.80;99.90
18408;DHT22;9330;52.210;21.174;2024-01-27T01:50:36;3.90;99.90
18408;DHT22;9330;52.210;21.174;2024-01-27T01:53:03;3.90;99.90
18408;DHT22;9330;52.210;21.174;2024-01-27T01:55:32;3.80;99.90
18408;DHT22;9330;52.210;21.174;2024-01-27T01:57:58;3.80;99.90
18408;DHT22;9330;52.210;21.174;2024-01-27T02:00:25;3.80;99.90
18408;DHT22;9330;52.210;21.174;2024-01-27T02:02:52;3.90;99.90
18408;DHT22;9330;52.210;21.174;2024-01-27T02:05:19;3.90;99.90
18408;DHT22;9330;52.210;21.174;2024-01-27T02:07:46;3.90;99.90
18408;DHT22;9330;52.210;21.174;2024-01-27T02:10:14;3.80;99.90
18408;DHT22;9330;52.210;21.174;2024-01-27T02:12:42;3.90;99.90
18408;DHT22;9330;52.210;21.174;2024-01-27T02:15:10;3.80;99.90
18408;DHT22;9330;52.210;21.174;2024-01-27T02:17:38;3.90;99.90
18408;DHT22;9330;52.210;21.174;2024-01-27T02:20:06;3.90;99.90
18408;DHT22;9330;52.210;21.174;2024-01-27T02:22:33;3.90;99.90
18408;DHT22;9330;52.210;21.174;2024-01-27T02:25:01;3.90;99.90
18408;DHT22;9330;52.210;21.174;2024-01-27T02:27:28;4.00;99.90
18408;DHT22;9330;52.210;21.174;2024-01-27T02:29:55;3.90;99.90
18408;DHT22;9330;52.210;21.174;2024-01-27T02:32:22;3.90;99.90
18408;DHT22;9330;52.210;21.174;2024-01-27T02:34:49;4.10;99.90
18408;DHT22;9330;52.210;21.174;2024-01-27T02:37:16;4.00;99.90
18408;DHT22;9330;52.210;21.174;2024-01-27T02:39:43;4.10;99.90
18408;DHT22;9330;52.210;21.174;2024-01-27T02:42:11;4.00;99.90
18408;DHT22;9330;52.210;21.174;2024-01-27T02:44:38;4.00;99.90
18408;DHT22;9330;52.210;21.174;2024-01-27T02:47:05;4.00;99.90
18408;DHT22;9330;52.210;21.174;2024-01-27T02:49:32;3.90;99.90
18408;DHT22;9330;52.210;21.174;2024-01-27T02:51:59;4.00;99.90
18408;DHT22;9330;52.210;21.174;2024-01-27T02:54:25;4.00;99.90
18408;DHT22;9330;52.210;21.174;2024-01-27T02:56:52;3.90;99.90
18408;DHT22;9330;52.210;21.174;2024-01-27T02:59:21;3.90;99.90
18408;DHT22;9330;52.210;21.174;2024-01-27T03:01:47;4.00;99.90
18408;DHT22;9330;52.210;21.174;2024-01-27T03:04:14;4.00;99.90
18408;DHT22;9330;52.210;21.174;2024-01-27T03:06:41;4.00;99.90
18408;DHT22;9330;52.210;21.174;2024-01-27T03:09:08;4.00;99.90
18408;DHT22;9330;52.210;21.174;2024-01-27T03:11:36;4.00;99.90
18408;DHT22;9330;52.210;21.174;2024-01-27T03:14:02;4.00;99.90
18408;DHT22;9330;52.210;21.174;2024-01-27T03:16:31;4.00;99.90
18408;DHT22;9330;52.210;21.174;2024-01-27T03:18:58;4.00;99.90
18408;DHT22;9330;52.210;21.174;2024-01-27T03:21:25;4.00;99.90
18408;DHT22;9330;52.210;21.174;2024-01-27T03:23:52;3.90;99.90
18408;DHT22;9330;52.210;21.174;2024-01-27T03:26:19;4.00;99.90
18408;DHT22;9330;52.210;21.174;2024-01-27T03:28:46;4.00;99.90
18408;DHT22;9330;52.210;21.174;2024-01-27T03:31:12;4.10;99.90
18408;DHT22;9330;52.210;21.174;2024-01-27T03:33:41;3.90;99.90
18408;DHT22;9330;52.210;21.174;2024-01-27T03:36:10;4.00;99.90
18408;DHT22;9330;52.210;21.174;2024-01-27T03:38:37;4.00;99.90
18408;DHT22;9330;52.210;21.174;2024-01-27T03:41:04;4.00;99.90
18408;DHT22;9330;52.210;21.174;2024-01-27T03:43:31;4.00;99.90
18408;DHT22;9330;52.210;21.174;2024-01-27T03:45:58;4.00;99.90
18408;DHT22;9330;52.210;21.174;2024-01-27T03:48:25;4.00;99.90
18408;DHT22;9330;52.210;21.174;2024-01-27T03:50:54;4.00;99.90
18408;DHT22;9330;52.210;21.174;2024-01-27T03:53:21;4.00;99.90
18408;DHT22;9330;52.210;21.174;2024-01-27T03:55:47;4.00;99.90
18408;DHT22;9330;52.210;21.174;2024-01-27T03:58:14;4.00;99.90
18408;DHT22;9330;52.210;21.174;2024-01-27T04:00:41;3.90;99.90
18408;DHT22;9330;52.210;21.174;2024-01-27T04:03:08;3.90;99.90
18408;DHT22;9330;52.210;21.174;2024-01-27T04:05:35;4.00;99.90
18408;DHT22;9330;52.210;21.174;2024-01-27T04:08:05;4.00;99.90
18408;DHT22;9330;52.210;21.174;2024-01-27T04:10:32;4.00;99.90
18408;DHT22;9330;52.210;21.174;2024-01-27T04:12:58;4.10;99.90
18408;DHT22;9330;52.210;21.174;2024-01-27T04:15:25;3.90;99.90
18408;DHT22;9330;52.210;21.174;2024-01-27T04:17:53;3.90;99.90
18408;DHT22;9330;52.210;21.174;2024-01-27T04:20:20;4.00;99.90
18408;DHT22;9330;52.210;21.174;2024-01-27T04:22:46;4.00;99.90
18408;DHT22;9330;52.210;21.174;2024-01-27T04:25:15;3.90;99.90
18408;DHT22;9330;52.210;21.174;2024-01-27T04:27:42;3.90;99.90
18408;DHT22;9330;52.210;21.174;2024-01-27T04:30:10;4.00;99.90
18408;DHT22;9330;52.210;21.174;2024-01-27T04:32:37;3.90;99.90
18408;DHT22;9330;52.210;21.174;2024-01-27T04:35:08;4.00;99.90
18408;DHT22;9330;52.210;21.174;2024-01-27T04:37:34;3.90;99.90
18408;DHT22;9330;52.210;21.174;2024-01-27T04:40:02;3.90;99.90
18408;DHT22;9330;52.210;21.174;2024-01-27T04:42:31;3.90;99.90
18408;DHT22;9330;52.210;21.174;2024-01-27T04:44:58;3.90;99.90
18408;DHT22;9330;52.210;21.174;2024-01-27T04:47:25;3.90;99.90
18408;DHT22;9330;52.210;21.174;2024-01-27T04:49:52;3.90;99.90
18408;DHT22;9330;52.210;21.174;2024-01-27T04:52:18;4.00;99.90
18408;DHT22;9330;52.210;21.174;2024-01-27T04:54:45;3.90;99.90
18408;DHT22;9330;52.210;21.174;2024-01-27T04:57:12;3.90;99.90
18408;DHT22;9330;52.210;21.174;2024-01-27T04:59:40;3.90;99.90
18408;DHT22;9330;52.210;21.174;2024-01-27T05:02:07;4.00;99.90
18408;DHT22;9330;52.210;21.174;2024-01-27T05:04:34;3.90;99.90
18408;DHT22;9330;52.210;21.174;2024-01-27T05:07:01;3.80;99.90
18408;DHT22;9330;52.210;21.174;2024-01-27T05:09:27;3.90;99.90
18408;DHT22;9330;52.210;21.174;2024-01-27T05:11:54;3.90;99.90
18408;DHT22;9330;52.210;21.174;2024-01-27T05:14:21;3.90;99.90
18408;DHT22;9330;52.210;21.174;2024-01-27T05:16:49;3.90;99.90
18408;DHT22;9330;52.210;21.174;2024-01-27T05:19:16;3.80;99.90
18408;DHT22;9330;52.210;21.174;2024-01-27T05:21:43;3.90;99.90
18408;DHT22;9330;52.210;21.174;2024-01-27T05:24:10;3.80;99.90
18408;DHT22;9330;52.210;21.174;2024-01-27T05:26:37;3.90;99.90
18408;DHT22;9330;52.210;21.174;2024-01-27T05:29:03;3.80;99.90
18408;DHT22;9330;52.210;21.174;2024-01-27T05:31:30;3.80;99.90
18408;DHT22;9330;52.210;21.174;2024-01-27T05:33:58;3.70;99.90
18408;DHT22;9330;52.210;21.174;2024-01-27T05:36:25;3.70;99.90
18408;DHT22;9330;52.210;21.174;2024-01-27T05:38:52;3.70;99.90
18408;DHT22;9330;52.210;21.174;2024-01-27T05:41:19;3.70;99.90
18408;DHT22;9330;52.210;21.174;2024-01-27T05:43:46;3.70;99.90
18408;DHT22;9330;52.210;21.174;2024-01-27T05:46:13;3.70;99.90
18408;DHT22;9330;52.210;21.174;2024-01-27T05:48:40;3.70;99.90
18408;DHT22;9330;52.210;21.174;2024-01-27T05:51:08;3.60;99.90
18408;DHT22;9330;52.210;21.174;2024-01-27T05:53:35;3.60;99.90
18408;DHT22;9330;52.210;21.174;2024-01-27T05:56:03;3.80;99.90
18408;DHT22;9330;52.210;21.174;2024-01-27T05:58:29;3.60;99.90
18408;DHT22;9330;52.210;21.174;2024-01-27T06:00:56;3.60;99.90
18408;DHT22;9330;52.210;21.174;2024-01-27T06:03:23;3.60;99.90
18408;DHT22;9330;52.210;21.174;2024-01-27T06:05:50;3.50;99.90
18408;DHT22;9330;52.210;21.174;2024-01-27T06:08:18;3.50;99.90
18408;DHT22;9330;52.210;21.174;2024-01-27T06:10:45;3.60;99.90
18408;DHT22;9330;52.210;21.174;2024-01-27T06:13:12;3.50;99.90
18408;DHT22;9330;52.210;21.174;2024-01-27T06:15:39;3.50;99.90
18408;DHT22;9330;52.210;21.174;2024-01-27T06:18:06;3.60;99.90
18408;DHT22;9330;52.210;21.174;2024-01-27T06:20:33;3.50;99.90
18408;DHT22;9330;52.210;21.174;2024-01-27T06:23:00;3.60;99.90
18408;DHT22;9330;52.210;21.174;2024-01-27T06:25:28;3.50;99.90
18408;DHT22;9330;52.210;21.174;2024-01-27T06:27:56;3.50;99.90
18408;DHT22;9330;52.210;21.174;2024-01-27T06:30:23;3.50;99.90
18408;DHT22;9330;52.210;21.174;2024-01-27T06:32:50;3.60;99.90
18408;DHT22;9330;52.210;21.174;2024-01-27T06:35:17;3.60;99.90
18408;DHT22;9330;52.210;21.174;2024-01-27T06:37:44;3.60;99.90
18408;DHT22;9330;52.210;21.174;2024-01-27T06:40:11;3.60;99.90
18408;DHT22;9330;52.210;21.174;2024-01-27T06:42:40;3.50;99.90
18408;DHT22;9330;52.210;21.174;2024-01-27T06:45:07;3.50;99.90
18408;DHT22;9330;52.210;21.174;2024-01-27T06:47:34;3.50;99.90
18408;DHT22;9330;52.210;21.174;2024-01-27T06:50:02;3.50;99.90
18408;DHT22;9330;52.210;21.174;2024-01-27T06:52:29;3.50;99.90
18408;DHT22;9330;52.210;21.174;2024-01-27T06:54:55;3.50;99.90
18408;DHT22;9330;52.210;21.174;2024-01-27T06:57:23;3.40;99.90
18408;DHT22;9330;52.210;21.174;2024-01-27T06:59:52;3.40;99.90
18408;DHT22;9330;52.210;21.174;2024-01-27T07:02:22;3.30;99.90
18408;DHT22;9330;52.210;21.174;2024-01-27T07:04:48;3.30;99.90
18408;DHT22;9330;52.210;21.174;2024-01-27T07:07:15;3.40;99.90
18408;DHT22;9330;52.210;21.174;2024-01-27T07:09:42;3.20;99.90
18408;DHT22;9330;52.210;21.174;2024-01-27T07:12:09;3.20;99.90
18408;DHT22;9330;52.210;21.174;2024-01-27T07:14:36;3.10;99.90
18408;DHT22;9330;52.210;21.174;2024-01-27T07:17:04;3.10;99.90
18408;DHT22;9330;52.210;21.174;2024-01-27T07:19:31;3.10;99.90
18408;DHT22;9330;52.210;21.174;2024-01-27T07:21:58;3.00;99.90
18408;DHT22;9330;52.210;21.174;2024-01-27T07:24:26;3.10;99.90
18408;DHT22;9330;52.210;21.174;2024-01-27T07:26:53;3.00;99.90
18408;DHT22;9330;52.210;21.174;2024-01-27T07:29:20;2.90;99.90
18408;DHT22;9330;52.210;21.174;2024-01-27T07:31:47;3.00;99.90
18408;DHT22;9330;52.210;21.174;2024-01-27T07:34:15;3.00;99.90
18408;DHT22;9330;52.210;21.174;2024-01-27T07:36:42;3.00;99.90
18408;DHT22;9330;52.210;21.174;2024-01-27T07:39:09;2.90;99.90
18408;DHT22;9330;52.210;21.174;2024-01-27T07:41:36;2.90;99.90
18408;DHT22;9330;52.210;21.174;2024-01-27T07:44:09;2.90;99.90
18408;DHT22;9330;52.210;21.174;2024-01-27T07:46:36;3.00;99.90
18408;DHT22;9330;52.210;21.174;2024-01-27T07:49:03;2.90;99.90
18408;DHT22;9330;52.210;21.174;2024-01-27T07:51:31;2.90;99.90
18408;DHT22;9330;52.210;21.174;2024-01-27T07:53:58;2.90;99.90
18408;DHT22;9330;52.210;21.174;2024-01-27T07:56:25;3.10;99.90
18408;DHT22;9330;52.210;21.174;2024-01-27T07:58:52;3.00;99.90
18408;DHT22;9330;52.210;21.174;2024-01-27T08:01:19;3.00;99.90
18408;DHT22;9330;52.210;21.174;2024-01-27T08:03:46;2.90;99.90
18408;DHT22;9330;52.210;21.174;2024-01-27T08:06:15;2.90;99.90
18408;DHT22;9330;52.210;21.174;2024-01-27T08:08:44;3.00;99.90
18408;DHT22;9330;52.210;21.174;2024-01-27T08:11:11;3.00;99.90
18408;DHT22;9330;52.210;21.174;2024-01-27T08:13:38;3.00;99.90
18408;DHT22;9330;52.210;21.174;2024-01-27T08:16:05;3.10;99.90
18408;DHT22;9330;52.210;21.174;2024-01-27T08:18:35;3.10;99.90
18408;DHT22;9330;52.210;21.174;2024-01-27T08:21:02;3.10;99.90
18408;DHT22;9330;52.210;21.174;2024-01-27T08:23:29;3.10;99.90
18408;DHT22;9330;52.210;21.174;2024-01-27T08:25:57;3.10;99.90
18408;DHT22;9330;52.210;21.174;2024-01-27T08:28:24;3.10;99.90
18408;DHT22;9330;52.210;21.174;2024-01-27T08:30:51;3.10;99.90
18408;DHT22;9330;52.210;21.174;2024-01-27T08:33:18;3.10;99.90
18408;DHT22;9330;52.210;21.174;2024-01-27T08:35:46;3.10;99.90
18408;DHT22;9330;52.210;21.174;2024-01-27T08:38:13;3.00;99.90
18408;DHT22;9330;52.210;21.174;2024-01-27T08:40:40;3.00;99.90
18408;DHT22;9330;52.210;21.174;2024-01-27T08:43:08;3.10;99.90
18408;DHT22;9330;52.210;21.174;2024-01-27T08:45:37;3.00;99.90
18408;DHT22;9330;52.210;21.174;2024-01-27T08:48:05;3.10;99.90
18408;DHT22;9330;52.210;21.174;2024-01-27T08:50:32;3.10;99.90
18408;DHT22;9330;52.210;21.174;2024-01-27T08:52:59;3.00;99.90
18408;DHT22;9330;52.210;21.174;2024-01-27T08:55:26;3.10;99.90
18408;DHT22;9330;52.210;21.174;2024-01-27T08:57:53;3.00;99.90
18408;DHT22;9330;52.210;21.174;2024-01-27T09:00:21;3.00;99.90
18408;DHT22;9330;52.210;21.174;2024-01-27T09:02:49;3.00;99.90
18408;DHT22;9330;52.210;21.174;2024-01-27T09:05:16;3.00;99.90
18408;DHT22;9330;52.210;21.174;2024-01-27T09:07:42;3.00;99.90
18408;DHT22;9330;52.210;21.174;2024-01-27T09:10:09;3.00;99.90
18408;DHT22;9330;52.210;21.174;2024-01-27T09:12:38;2.90;99.90
18408;DHT22;9330;52.210;21.174;2024-01-27T09:15:06;2.90;99.90
18408;DHT22;9330;52.210;21.174;2024-01-27T09:17:35;3.00;99.90
18408;DHT22;9330;52.210;21.174;2024-01-27T09:20:02;3.00;99.90
18408;DHT22;9330;52.210;21.174;2024-01-27T09:22:29;3.00;99.90
18408;DHT22;9330;52.210;21.174;2024-01-27T09:24:56;2.90;99.90
18408;DHT22;9330;52.210;21.174;2024-01-27T09:27:23;2.90;99.90
18408;DHT22;9330;52.210;21.174;2024-01-27T09:29:50;3.00;99.90
18408;DHT22;9330;52.210;21.174;2024-01-27T09:32:16;3.10;99.90
18408;DHT22;9330;52.210;21.174;2024-01-27T09:34:44;3.10;99.90
18408;DHT22;9330;52.210;21.174;2024-01-27T09:37:11;3.00;99.90
18408;DHT22;9330;52.210;21.174;2024-01-27T09:39:38;3.10;99.90
18408;DHT22;9330;52.210;21.174;2024-01-27T09:42:08;3.00;99.90
18408;DHT22;9330;52.210;21.174;2024-01-27T09:44:39;3.00;99.90
18408;DHT22;9330;52.210;21.174;2024-01-27T09:47:07;3.00;99.90
18408;DHT22;9330;52.210;21.174;2024-01-27T09:49:34;3.00;99.90
18408;DHT22;9330;52.210;21.174;2024-01-27T09:52:04;3.00;99.90
18408;DHT22;9330;52.210;21.174;2024-01-27T09:54:31;3.00;99.90
18408;DHT22;9330;52.210;21.174;2024-01-27T09:56:58;3.00;99.90
18408;DHT22;9330;52.210;21.174;2024-01-27T09:59:25;3.10;99.90
18408;DHT22;9330;52.210;21.174;2024-01-27T10:01:53;3.10;99.90
18408;DHT22;9330;52.210;21.174;2024-01-27T10:04:20;3.10;99.90
18408;DHT22;9330;52.210;21.174;2024-01-27T10:06:49;3.10;99.90
18408;DHT22;9330;52.210;21.174;2024-01-27T10:09:18;3.20;99.90
18408;DHT22;9330;52.210;21.174;2024-01-27T10:11:46;3.20;99.90
18408;DHT22;9330;52.210;21.174;2024-01-27T10:14:13;3.20;99.90
18408;DHT22;9330;52.210;21.174;2024-01-27T10:16:41;3.40;99.90
18408;DHT22;9330;52.210;21.174;2024-01-27T10:19:12;3.20;99.90
18408;DHT22;9330;52.210;21.174;2024-01-27T10:21:40;3.30;99.90
18408;DHT22;9330;52.210;21.174;2024-01-27T10:24:07;3.30;99.90
18408;DHT22;9330;52.210;21.174;2024-01-27T10:26:35;3.20;99.90
18408;DHT22;9330;52.210;21.174;2024-01-27T10:29:02;3.30;99.90
18408;DHT22;9330;52.210;21.174;2024-01-27T10:31:30;3.40;99.90
18408;DHT22;9330;52.210;21.174;2024-01-27T10:33:57;3.40;99.90
18408;DHT22;9330;52.210;21.174;2024-01-27T10:36:24;3.40;99.90
18408;DHT22;9330;52.210;21.174;2024-01-27T10:38:52;3.50;99.90
18408;DHT22;9330;52.210;21.174;2024-01-27T10:41:22;3.40;99.90
18408;DHT22;9330;52.210;21.174;2024-01-27T10:43:51;3.50;99.90
18408;DHT22;9330;52.210;21.174;2024-01-27T10:46:19;3.40;99.90
18408;DHT22;9330;52.210;21.174;2024-01-27T10:48:50;3.40;99.90
18408;DHT22;9330;52.210;21.174;2024-01-27T10:51:23;3.50;99.90
18408;DHT22;9330;52.210;21.174;2024-01-27T10:53:54;3.50;99.90
18408;DHT22;9330;52.210;21.174;2024-01-27T10:56:26;3.40;99.90
18408;DHT22;9330;52.210;21.174;2024-01-27T10:58:55;3.50;99.90
18408;DHT22;9330;52.210;21.174;2024-01-27T11:01:24;3.60;99.90
18408;DHT22;9330;52.210;21.174;2024-01-27T11:03:52;3.50;99.90
18408;DHT22;9330;52.210;21.174;2024-01-27T11:06:22;3.60;99.90
18408;DHT22;9330;52.210;21.174;2024-01-27T11:08:49;3.60;99.90
18408;DHT22;9330;52.210;21.174;2024-01-27T11:11:16;3.50;99.90
18408;DHT22;9330;52.210;21.174;2024-01-27T11:13:44;3.70;99.90
18408;DHT22;9330;52.210;21.174;2024-01-27T11:16:17;3.70;99.90
18408;DHT22;9330;52.210;21.174;2024-01-27T11:18:45;3.60;99.90
18408;DHT22;9330;52.210;21.174;2024-01-27T11:21:14;3.60;99.90
18408;DHT22;9330;52.210;21.174;2024-01-27T11:23:42;3.70;99.90
18408;DHT22;9330;52.210;21.174;2024-01-27T11:26:17;3.60;99.90
18408;DHT22;9330;52.210;21.174;2024-01-27T11:28:46;3.50;99.90
18408;DHT22;9330;52.210;21.174;2024-01-27T11:31:12;3.50;99.90
18408;DHT22;9330;52.210;21.174;2024-01-27T11:33:46;3.50;99.90
18408;DHT22;9330;52.210;21.174;2024-01-27T11:36:21;3.50;99.90
18408;DHT22;9330;52.210;21.174;2024-01-27T11:38:49;3.50;99.90
18408;DHT22;9330;52.210;21.174;2024-01-27T11:41:25;3.50;99.90
18408;DHT22;9330;52.210;21.174;2024-01-27T11:43:52;3.40;99.90
18408;DHT22;9330;52.210;21.174;2024-01-27T11:46:19;3.50;99.90
18408;DHT22;9330;52.210;21.174;2024-01-27T11:48:48;3.50;99.90
18408;DHT22;9330;52.210;21.174;2024-01-27T11:51:15;3.40;99.90
18408;DHT22;9330;52.210;21.174;2024-01-27T11:53:44;3.40;99.90
18408;DHT22;9330;52.210;21.174;2024-01-27T11:56:14;3.40;99.90
18408;DHT22;9330;52.210;21.174;2024-01-27T11:58:46;3.40;99.90
18408;DHT22;9330;52.210;21.174;2024-01-27T12:01:14;3.50;99.90
18408;DHT22;9330;52.210;21.174;2024-01-27T12:03:41;3.40;99.90
18408;DHT22;9330;52.210;21.174;2024-01-27T12:06:09;3.50;99.90
18408;DHT22;9330;52.210;21.174;2024-01-27T12:08:36;3.40;99.90
18408;DHT22;9330;52.210;21.174;2024-01-27T12:11:03;3.50;99.90
18408;DHT22;9330;52.210;21.174;2024-01-27T12:13:30;3.40;99.90
18408;DHT22;9330;52.210;21.174;2024-01-27T12:15:57;3.40;99.90
18408;DHT22;9330;52.210;21.174;2024-01-27T12:18:24;3.40;99.90
18408;DHT22;9330;52.210;21.174;2024-01-27T12:20:55;3.40;99.90
18408;DHT22;9330;52.210;21.174;2024-01-27T12:23:24;3.50;99.90
18408;DHT22;9330;52.210;21.174;2024-01-27T12:25:54;3.50;99.90
18408;DHT22;9330;52.210;21.174;2024-01-27T12:28:22;3.40;99.90
18408;DHT22;9330;52.210;21.174;2024-01-27T12:30:49;3.50;99.90
18408;DHT22;9330;52.210;21.174;2024-01-27T12:33:16;3.50;99.90
18408;DHT22;9330;52.210;21.174;2024-01-27T12:35:45;3.50;99.90
18408;DHT22;9330;52.210;21.174;2024-01-27T12:38:12;3.40;99.90
18408;DHT22;9330;52.210;21.174;2024-01-27T12:40:40;3.40;99.90
18408;DHT22;9330;52.210;21.174;2024-01-27T12:43:07;3.50;99.90
18408;DHT22;9330;52.210;21.174;2024-01-27T12:45:35;3.40;99.90
18408;DHT22;9330;52.210;21.174;2024-01-27T12:48:02;3.40;99.90
18408;DHT22;9330;52.210;21.174;2024-01-27T12:50:30;3.40;99.90
18408;DHT22;9330;52.210;21.174;2024-01-27T12:52:57;3.30;99.90
18408;DHT22;9330;52.210;21.174;2024-01-27T12:55:24;3.40;99.90
18408;DHT22;9330;52.210;21.174;2024-01-27T12:57:53;3.30;99.90
18408;DHT22;9330;52.210;21.174;2024-01-27T13:00:20;3.40;99.90
18408;DHT22;9330;52.210;21.174;2024-01-27T13:02:47;3.50;99.90
18408;DHT22;9330;52.210;21.174;2024-01-27T13:05:14;3.30;99.90
18408;DHT22;9330;52.210;21.174;2024-01-27T13:07:41;3.40;99.90
18408;DHT22;9330;52.210;21.174;2024-01-27T13:10:10;3.40;99.90
18408;DHT22;9330;52.210;21.174;2024-01-27T13:12:37;3.40;99.90
18408;DHT22;9330;52.210;21.174;2024-01-27T13:15:06;3.40;99.90
18408;DHT22;9330;52.210;21.174;2024-01-27T13:17:32;3.40;99.90
18408;DHT22;9330;52.210;21.174;2024-01-27T13:19:59;3.40;99.90
18408;DHT22;9330;52.210;21.174;2024-01-27T13:22:26;3.50;99.90
18408;DHT22;9330;52.210;21.174;2024-01-27T13:24:53;3.40;99.90
18408;DHT22;9330;52.210;21.174;2024-01-27T13:27:20;3.50;99.90
18408;DHT22;9330;52.210;21.174;2024-01-27T13:29:47;3.70;99.90
18408;DHT22;9330;52.210;21.174;2024-01-27T13:32:16;3.50;99.90
18408;DHT22;9330;52.210;21.174;2024-01-27T13:34:42;3.60;99.90
18408;DHT22;9330;52.210;21.174;2024-01-27T13:37:10;3.60;99.90
18408;DHT22;9330;52.210;21.174;2024-01-27T13:39:37;3.60;99.90
18408;DHT22;9330;52.210;21.174;2024-01-27T13:42:04;3.40;99.90
18408;DHT22;9330;52.210;21.174;2024-01-27T13:44:32;3.60;99.90
18408;DHT22;9330;52.210;21.174;2024-01-27T13:47:01;3.60;99.90
18408;DHT22;9330;52.210;21.174;2024-01-27T13:49:29;3.60;99.90
18408;DHT22;9330;52.210;21.174;2024-01-27T13:51:56;3.70;99.90
18408;DHT22;9330;52.210;21.174;2024-01-27T13:54:23;3.70;99.90
18408;DHT22;9330;52.210;21.174;2024-01-27T13:56:49;3.70;99.90
18408;DHT22;9330;52.210;21.174;2024-01-27T13:59:16;3.70;99.90
18408;DHT22;9330;52.210;21.174;2024-01-27T14:01:44;3.70;99.90
18408;DHT22;9330;52.210;21.174;2024-01-27T14:04:11;3.70;99.90
18408;DHT22;9330;52.210;21.174;2024-01-27T14:06:40;3.70;99.90
18408;DHT22;9330;52.210;21.174;2024-01-27T14:09:07;3.80;99.90
18408;DHT22;9330;52.210;21.174;2024-01-27T14:11:34;3.70;99.90
18408;DHT22;9330;52.210;21.174;2024-01-27T14:14:01;3.70;99.90
18408;DHT22;9330;52.210;21.174;2024-01-27T14:16:28;3.70;99.90
18408;DHT22;9330;52.210;21.174;2024-01-27T14:18:55;3.60;99.90
18408;DHT22;9330;52.210;21.174;2024-01-27T14:21:22;3.60;99.90
18408;DHT22;9330;52.210;21.174;2024-01-27T14:23:50;3.60;99.90
18408;DHT22;9330;52.210;21.174;2024-01-27T14:26:22;3.60;99.90
18408;DHT22;9330;52.210;21.174;2024-01-27T14:28:49;3.60;99.90
18408;DHT22;9330;52.210;21.174;2024-01-27T14:34:41;3.60;99.90
18408;DHT22;9330;52.210;21.174;2024-01-27T14:37:08;3.60;99.90
18408;DHT22;9330;52.210;21.174;2024-01-27T14:39:36;3.60;99.90
18408;DHT22;9330;52.210;21.174;2024-01-27T14:42:03;3.60;99.90
18408;DHT22;9330;52.210;21.174;2024-01-27T14:44:32;3.60;99.90
18408;DHT22;9330;52.210;21.174;2024-01-27T14:46:59;3.70;99.90
18408;DHT22;9330;52.210;21.174;2024-01-27T14:49:25;3.60;99.90
18408;DHT22;9330;52.210;21.174;2024-01-27T14:51:53;3.50;99.90
18408;DHT22;9330;52.210;21.174;2024-01-27T14:54:20;3.40;99.90
18408;DHT22;9330;52.210;21.174;2024-01-27T14:56:48;3.40;99.90
18408;DHT22;9330;52.210;21.174;2024-01-27T14:59:15;3.40;99.90
18408;DHT22;9330;52.210;21.174;2024-01-27T15:01:42;3.40;99.90
18408;DHT22;9330;52.210;21.174;2024-01-27T15:04:09;3.30;99.90
18408;DHT22;9330;52.210;21.174;2024-01-27T15:06:36;3.30;99.90
18408;DHT22;9330;52.210;21.174;2024-01-27T15:09:03;3.20;99.90
18408;DHT22;9330;52.210;21.174;2024-01-27T15:11:30;3.20;99.90
18408;DHT22;9330;52.210;21.174;2024-01-27T15:13:58;3.30;99.90
18408;DHT22;9330;52.210;21.174;2024-01-27T15:16:25;3.20;99.90
18408;DHT22;9330;52.210;21.174;2024-01-27T15:18:54;3.20;99.90
18408;DHT22;9330;52.210;21.174;2024-01-27T15:21:21;3.10;99.90
18408;DHT22;9330;52.210;21.174;2024-01-27T15:23:48;3.10;99.90
18408;DHT22;9330;52.210;21.174;2024-01-27T15:26:15;3.10;99.90
18408;DHT22;9330;52.210;21.174;2024-01-27T15:28:42;3.10;99.90
18408;DHT22;9330;52.210;21.174;2024-01-27T15:31:10;3.10;99.90
18408;DHT22;9330;52.210;21.174;2024-01-27T15:33:37;3.10;99.90
18408;DHT22;9330;52.210;21.174;2024-01-27T15:36:04;3.10;99.90
18408;DHT22;9330;52.210;21.174;2024-01-27T15:38:31;3.10;99.90
18408;DHT22;9330;52.210;21.174;2024-01-27T15:40:58;3.10;99.90
18408;DHT22;9330;52.210;21.174;2024-01-27T15:43:25;3.00;99.90
18408;DHT22;9330;52.210;21.174;2024-01-27T15:45:52;3.10;99.90
18408;DHT22;9330;52.210;21.174;2024-01-27T15:48:20;2.90;99.90